sensor_id;sensor_type;location;lat;lon;timestamp;P1;durP1;ratioP1;P2;durP2;ratioP2
67146;SDS011;70072;52.036;5.558;2023-12-14T00:00:30;2.63;;;1.10;;
67146;SDS011;70072;52.036;5.558;2023-12-14T00:02:56;1.95;;;1.23;;
67146;SDS011;70072;52.036;5.558;2023-12-14T00:05:22;2.00;;;1.48;;
67146;SDS011;70072;52.036;5.558;2023-12-14T00:07:47;2.97;;;1.42;;
67146;SDS011;70072;52.036;5.558;2023-12-14T00:10:13;1.50;;;1.30;;
67146;SDS011;70072;52.036;5.558;2023-12-14T00:12:45;1.67;;;1.10;;
67146;SDS011;70072;52.036;5.558;2023-12-14T00:15:11;3.22;;;1.20;;
67146;SDS011;70072;52.036;5.558;2023-12-14T00:17:38;1.48;;;1.20;;
67146;SDS011;70072;52.036;5.558;2023-12-14T00:20:04;2.50;;;1.30;;
67146;SDS011;70072;52.036;5.558;2023-12-14T00:22:30;1.27;;;1.17;;
67146;SDS011;70072;52.036;5.558;2023-12-14T00:24:56;1.63;;;1.25;;
67146;SDS011;70072;52.036;5.558;2023-12-14T00:27:22;1.55;;;1.30;;
67146;SDS011;70072;52.036;5.558;2023-12-14T00:29:47;1.23;;;1.00;;
67146;SDS011;70072;52.036;5.558;2023-12-14T00:32:13;1.40;;;1.30;;
67146;SDS011;70072;52.036;5.558;2023-12-14T00:34:41;1.55;;;1.15;;
67146;SDS011;70072;52.036;5.558;2023-12-14T00:37:06;1.65;;;1.20;;
67146;SDS011;70072;52.036;5.558;2023-12-14T00:39:32;1.33;;;1.20;;
67146;SDS011;70072;52.036;5.558;2023-12-14T00:41:58;2.15;;;1.30;;
67146;SDS011;70072;52.036;5.558;2023-12-14T00:44:23;1.23;;;1.00;;
67146;SDS011;70072;52.036;5.558;2023-12-14T00:46:49;3.28;;;1.10;;
67146;SDS011;70072;52.036;5.558;2023-12-14T00:49:14;1.63;;;1.30;;
67146;SDS011;70072;52.036;5.558;2023-12-14T00:51:43;3.38;;;1.17;;
67146;SDS011;70072;52.036;5.558;2023-12-14T00:54:08;1.63;;;1.30;;
67146;SDS011;70072;52.036;5.558;2023-12-14T00:56:34;2.55;;;1.30;;
67146;SDS011;70072;52.036;5.558;2023-12-14T00:58:59;2.00;;;1.33;;
67146;SDS011;70072;52.036;5.558;2023-12-14T01:01:27;1.48;;;1.10;;
67146;SDS011;70072;52.036;5.558;2023-12-14T01:03:53;1.45;;;1.10;;
67146;SDS011;70072;52.036;5.558;2023-12-14T01:06:18;1.50;;;1.00;;
67146;SDS011;70072;52.036;5.558;2023-12-14T01:08:44;1.05;;;1.00;;
67146;SDS011;70072;52.036;5.558;2023-12-14T01:11:10;1.40;;;1.20;;
67146;SDS011;70072;52.036;5.558;2023-12-14T01:13:35;1.40;;;1.30;;
67146;SDS011;70072;52.036;5.558;2023-12-14T01:16:01;3.05;;;1.23;;
67146;SDS011;70072;52.036;5.558;2023-12-14T01:18:27;2.00;;;1.10;;
67146;SDS011;70072;52.036;5.558;2023-12-14T01:20:52;1.70;;;1.30;;
67146;SDS011;70072;52.036;5.558;2023-12-14T01:23:18;2.17;;;1.23;;
67146;SDS011;70072;52.036;5.558;2023-12-14T01:25:44;2.13;;;1.27;;
67146;SDS011;70072;52.036;5.558;2023-12-14T01:28:11;3.38;;;1.45;;
67146;SDS011;70072;52.036;5.558;2023-12-14T01:30:39;1.52;;;1.00;;
67146;SDS011;70072;52.036;5.558;2023-12-14T01:33:04;2.37;;;1.20;;
67146;SDS011;70072;52.036;5.558;2023-12-14T01:35:30;1.98;;;1.42;;
67146;SDS011;70072;52.036;5.558;2023-12-14T01:37:55;2.35;;;1.10;;
67146;SDS011;70072;52.036;5.558;2023-12-14T01:40:21;2.67;;;1.15;;
67146;SDS011;70072;52.036;5.558;2023-12-14T01:42:47;1.33;;;1.13;;
67146;SDS011;70072;52.036;5.558;2023-12-14T01:45:12;2.00;;;1.27;;
67146;SDS011;70072;52.036;5.558;2023-12-14T01:47:42;1.30;;;1.20;;
67146;SDS011;70072;52.036;5.558;2023-12-14T01:50:08;1.48;;;1.23;;
67146;SDS011;70072;52.036;5.558;2023-12-14T01:52:33;1.63;;;1.00;;
67146;SDS011;70072;52.036;5.558;2023-12-14T01:54:59;1.98;;;1.20;;
67146;SDS011;70072;52.036;5.558;2023-12-14T01:57:27;1.20;;;0.93;;
67146;SDS011;70072;52.036;5.558;2023-12-14T01:59:53;1.33;;;1.15;;
67146;SDS011;70072;52.036;5.558;2023-12-14T02:02:19;1.25;;;1.15;;
67146;SDS011;70072;52.036;5.558;2023-12-14T02:04:44;1.42;;;1.00;;
67146;SDS011;70072;52.036;5.558;2023-12-14T02:07:10;0.93;;;0.93;;
67146;SDS011;70072;52.036;5.558;2023-12-14T02:09:36;1.25;;;1.10;;
67146;SDS011;70072;52.036;5.558;2023-12-14T02:12:05;1.38;;;1.23;;
67146;SDS011;70072;52.036;5.558;2023-12-14T02:14:31;1.48;;;1.10;;
67146;SDS011;70072;52.036;5.558;2023-12-14T02:16:56;2.47;;;1.13;;
67146;SDS011;70072;52.036;5.558;2023-12-14T02:19:22;1.75;;;1.30;;
67146;SDS011;70072;52.036;5.558;2023-12-14T02:21:48;2.30;;;1.25;;
67146;SDS011;70072;52.036;5.558;2023-12-14T02:24:13;1.23;;;1.13;;
67146;SDS011;70072;52.036;5.558;2023-12-14T02:26:39;1.50;;;1.15;;
67146;SDS011;70072;52.036;5.558;2023-12-14T02:29:04;1.80;;;1.30;;
67146;SDS011;70072;52.036;5.558;2023-12-14T02:31:30;2.08;;;1.20;;
67146;SDS011;70072;52.036;5.558;2023-12-14T02:33:56;2.13;;;1.33;;
67146;SDS011;70072;52.036;5.558;2023-12-14T02:36:21;3.35;;;1.10;;
67146;SDS011;70072;52.036;5.558;2023-12-14T02:38:47;1.35;;;0.98;;
67146;SDS011;70072;52.036;5.558;2023-12-14T02:41:12;1.90;;;1.10;;
67146;SDS011;70072;52.036;5.558;2023-12-14T02:43:38;1.55;;;1.08;;
67146;SDS011;70072;52.036;5.558;2023-12-14T02:46:05;1.20;;;1.10;;
67146;SDS011;70072;52.036;5.558;2023-12-14T02:48:31;1.27;;;1.15;;
67146;SDS011;70072;52.036;5.558;2023-12-14T02:50:57;2.47;;;0.88;;
67146;SDS011;70072;52.036;5.558;2023-12-14T02:53:24;1.10;;;1.00;;
67146;SDS011;70072;52.036;5.558;2023-12-14T02:55:50;1.13;;;0.90;;
67146;SDS011;70072;52.036;5.558;2023-12-14T02:58:16;1.10;;;1.00;;
67146;SDS011;70072;52.036;5.558;2023-12-14T03:00:44;1.20;;;1.00;;
67146;SDS011;70072;52.036;5.558;2023-12-14T03:03:10;1.33;;;0.73;;
67146;SDS011;70072;52.036;5.558;2023-12-14T03:05:35;1.27;;;1.00;;
67146;SDS011;70072;52.036;5.558;2023-12-14T03:08:01;2.13;;;1.05;;
67146;SDS011;70072;52.036;5.558;2023-12-14T03:10:27;1.42;;;1.10;;
67146;SDS011;70072;52.036;5.558;2023-12-14T03:12:55;1.95;;;1.10;;
67146;SDS011;70072;52.036;5.558;2023-12-14T03:15:20;1.17;;;1.08;;
67146;SDS011;70072;52.036;5.558;2023-12-14T03:17:47;1.55;;;1.10;;
67146;SDS011;70072;52.036;5.558;2023-12-14T03:20:12;1.63;;;0.90;;
67146;SDS011;70072;52.036;5.558;2023-12-14T03:22:39;1.23;;;1.02;;
67146;SDS011;70072;52.036;5.558;2023-12-14T03:25:05;1.42;;;1.10;;
67146;SDS011;70072;52.036;5.558;2023-12-14T03:27:34;1.48;;;0.98;;
67146;SDS011;70072;52.036;5.558;2023-12-14T03:30:00;1.30;;;1.00;;
67146;SDS011;70072;52.036;5.558;2023-12-14T03:32:26;1.38;;;1.10;;
67146;SDS011;70072;52.036;5.558;2023-12-14T03:34:51;1.40;;;1.30;;
67146;SDS011;70072;52.036;5.558;2023-12-14T03:37:17;1.10;;;1.00;;
67146;SDS011;70072;52.036;5.558;2023-12-14T03:39:43;2.13;;;1.20;;
67146;SDS011;70072;52.036;5.558;2023-12-14T03:42:11;1.42;;;1.33;;
67146;SDS011;70072;52.036;5.558;2023-12-14T03:44:37;1.10;;;1.00;;
67146;SDS011;70072;52.036;5.558;2023-12-14T03:47:02;1.35;;;1.20;;
67146;SDS011;70072;52.036;5.558;2023-12-14T03:49:28;2.90;;;1.25;;
67146;SDS011;70072;52.036;5.558;2023-12-14T03:51:54;1.05;;;0.98;;
67146;SDS011;70072;52.036;5.558;2023-12-14T03:54:19;2.08;;;1.15;;
67146;SDS011;70072;52.036;5.558;2023-12-14T03:56:45;1.75;;;1.02;;
67146;SDS011;70072;52.036;5.558;2023-12-14T03:59:11;0.80;;;0.80;;
67146;SDS011;70072;52.036;5.558;2023-12-14T04:01:36;1.08;;;1.00;;
67146;SDS011;70072;52.036;5.558;2023-12-14T04:04:04;1.63;;;1.33;;
67146;SDS011;70072;52.036;5.558;2023-12-14T04:06:30;1.33;;;1.17;;
67146;SDS011;70072;52.036;5.558;2023-12-14T04:08:55;0.93;;;0.90;;
67146;SDS011;70072;52.036;5.558;2023-12-14T04:11:21;5.05;;;1.17;;
67146;SDS011;70072;52.036;5.558;2023-12-14T04:13:47;1.33;;;1.10;;
67146;SDS011;70072;52.036;5.558;2023-12-14T04:16:15;3.15;;;1.00;;
67146;SDS011;70072;52.036;5.558;2023-12-14T04:18:43;1.63;;;0.95;;
67146;SDS011;70072;52.036;5.558;2023-12-14T04:21:09;1.10;;;1.00;;
67146;SDS011;70072;52.036;5.558;2023-12-14T04:23:34;2.90;;;1.13;;
67146;SDS011;70072;52.036;5.558;2023-12-14T04:26:02;1.10;;;1.00;;
67146;SDS011;70072;52.036;5.558;2023-12-14T04:28:30;1.45;;;1.10;;
67146;SDS011;70072;52.036;5.558;2023-12-14T04:30:55;0.95;;;0.85;;
67146;SDS011;70072;52.036;5.558;2023-12-14T04:33:21;1.17;;;1.00;;
67146;SDS011;70072;52.036;5.558;2023-12-14T04:35:47;1.33;;;1.00;;
67146;SDS011;70072;52.036;5.558;2023-12-14T04:38:12;1.42;;;1.10;;
67146;SDS011;70072;52.036;5.558;2023-12-14T04:40:38;1.40;;;1.10;;
67146;SDS011;70072;52.036;5.558;2023-12-14T04:43:06;0.90;;;0.90;;
67146;SDS011;70072;52.036;5.558;2023-12-14T04:45:32;1.00;;;0.77;;
67146;SDS011;70072;52.036;5.558;2023-12-14T04:47:57;1.25;;;1.00;;
67146;SDS011;70072;52.036;5.558;2023-12-14T04:50:23;0.80;;;0.80;;
67146;SDS011;70072;52.036;5.558;2023-12-14T04:52:48;1.33;;;1.23;;
67146;SDS011;70072;52.036;5.558;2023-12-14T04:55:14;1.13;;;1.02;;
67146;SDS011;70072;52.036;5.558;2023-12-14T04:57:40;2.28;;;1.10;;
67146;SDS011;70072;52.036;5.558;2023-12-14T05:00:05;3.05;;;0.95;;
67146;SDS011;70072;52.036;5.558;2023-12-14T05:02:32;1.48;;;0.98;;
67146;SDS011;70072;52.036;5.558;2023-12-14T05:04:58;1.95;;;1.00;;
67146;SDS011;70072;52.036;5.558;2023-12-14T05:07:24;2.28;;;0.90;;
67146;SDS011;70072;52.036;5.558;2023-12-14T05:09:50;1.45;;;0.90;;
67146;SDS011;70072;52.036;5.558;2023-12-14T05:12:18;2.50;;;1.10;;
67146;SDS011;70072;52.036;5.558;2023-12-14T05:14:43;0.80;;;0.80;;
67146;SDS011;70072;52.036;5.558;2023-12-14T05:17:09;1.23;;;1.10;;
67146;SDS011;70072;52.036;5.558;2023-12-14T05:19:36;1.73;;;1.02;;
67146;SDS011;70072;52.036;5.558;2023-12-14T05:22:02;1.23;;;1.13;;
67146;SDS011;70072;52.036;5.558;2023-12-14T05:24:27;1.48;;;1.15;;
67146;SDS011;70072;52.036;5.558;2023-12-14T05:26:53;0.95;;;0.85;;
67146;SDS011;70072;52.036;5.558;2023-12-14T05:29:18;1.00;;;0.90;;
67146;SDS011;70072;52.036;5.558;2023-12-14T05:31:46;1.45;;;1.00;;
67146;SDS011;70072;52.036;5.558;2023-12-14T05:34:12;2.50;;;0.80;;
67146;SDS011;70072;52.036;5.558;2023-12-14T05:36:38;4.53;;;1.00;;
67146;SDS011;70072;52.036;5.558;2023-12-14T05:39:03;1.00;;;0.90;;
67146;SDS011;70072;52.036;5.558;2023-12-14T05:41:29;2.15;;;1.00;;
67146;SDS011;70072;52.036;5.558;2023-12-14T05:43:55;1.05;;;0.93;;
67146;SDS011;70072;52.036;5.558;2023-12-14T05:46:21;1.33;;;0.90;;
67146;SDS011;70072;52.036;5.558;2023-12-14T05:48:48;1.13;;;0.98;;
67146;SDS011;70072;52.036;5.558;2023-12-14T05:51:25;1.52;;;0.80;;
67146;SDS011;70072;52.036;5.558;2023-12-14T05:53:52;1.75;;;0.90;;
67146;SDS011;70072;52.036;5.558;2023-12-14T05:56:17;0.70;;;0.70;;
67146;SDS011;70072;52.036;5.558;2023-12-14T05:58:45;1.02;;;0.93;;
67146;SDS011;70072;52.036;5.558;2023-12-14T06:01:11;1.92;;;0.90;;
67146;SDS011;70072;52.036;5.558;2023-12-14T06:03:36;0.90;;;0.90;;
67146;SDS011;70072;52.036;5.558;2023-12-14T06:06:02;1.85;;;1.00;;
67146;SDS011;70072;52.036;5.558;2023-12-14T06:08:28;0.80;;;0.80;;
67146;SDS011;70072;52.036;5.558;2023-12-14T06:10:53;2.08;;;0.80;;
67146;SDS011;70072;52.036;5.558;2023-12-14T06:13:19;1.38;;;0.90;;
67146;SDS011;70072;52.036;5.558;2023-12-14T06:15:46;1.20;;;1.05;;
67146;SDS011;70072;52.036;5.558;2023-12-14T06:18:12;1.00;;;0.90;;
67146;SDS011;70072;52.036;5.558;2023-12-14T06:20:38;1.30;;;0.77;;
67146;SDS011;70072;52.036;5.558;2023-12-14T06:23:05;1.17;;;1.08;;
67146;SDS011;70072;52.036;5.558;2023-12-14T06:25:31;0.82;;;0.80;;
67146;SDS011;70072;52.036;5.558;2023-12-14T06:27:57;2.95;;;1.00;;
67146;SDS011;70072;52.036;5.558;2023-12-14T06:30:24;1.40;;;1.10;;
67146;SDS011;70072;52.036;5.558;2023-12-14T06:32:52;1.98;;;0.95;;
67146;SDS011;70072;52.036;5.558;2023-12-14T06:35:18;2.00;;;0.90;;
67146;SDS011;70072;52.036;5.558;2023-12-14T06:37:43;0.75;;;0.75;;
67146;SDS011;70072;52.036;5.558;2023-12-14T06:40:09;1.63;;;0.90;;
67146;SDS011;70072;52.036;5.558;2023-12-14T06:42:35;1.58;;;0.75;;
67146;SDS011;70072;52.036;5.558;2023-12-14T06:45:02;1.27;;;0.80;;
67146;SDS011;70072;52.036;5.558;2023-12-14T06:47:28;3.42;;;1.00;;
67146;SDS011;70072;52.036;5.558;2023-12-14T06:49:54;0.95;;;0.80;;
67146;SDS011;70072;52.036;5.558;2023-12-14T06:52:21;0.98;;;0.80;;
67146;SDS011;70072;52.036;5.558;2023-12-14T06:54:47;1.48;;;0.90;;
67146;SDS011;70072;52.036;5.558;2023-12-14T06:57:13;1.40;;;1.08;;
67146;SDS011;70072;52.036;5.558;2023-12-14T06:59:42;0.73;;;0.73;;
67146;SDS011;70072;52.036;5.558;2023-12-14T07:02:10;1.40;;;1.17;;
67146;SDS011;70072;52.036;5.558;2023-12-14T07:04:35;1.50;;;0.85;;
67146;SDS011;70072;52.036;5.558;2023-12-14T07:07:01;1.10;;;1.00;;
67146;SDS011;70072;52.036;5.558;2023-12-14T07:09:29;1.75;;;0.93;;
67146;SDS011;70072;52.036;5.558;2023-12-14T07:11:55;1.63;;;0.90;;
67146;SDS011;70072;52.036;5.558;2023-12-14T07:14:20;3.08;;;0.80;;
67146;SDS011;70072;52.036;5.558;2023-12-14T07:16:46;1.02;;;0.75;;
67146;SDS011;70072;52.036;5.558;2023-12-14T07:19:11;0.80;;;0.80;;
67146;SDS011;70072;52.036;5.558;2023-12-14T07:21:37;1.17;;;0.90;;
67146;SDS011;70072;52.036;5.558;2023-12-14T07:24:03;0.70;;;0.70;;
67146;SDS011;70072;52.036;5.558;2023-12-14T07:26:28;1.17;;;0.80;;
67146;SDS011;70072;52.036;5.558;2023-12-14T07:28:56;1.65;;;1.00;;
67146;SDS011;70072;52.036;5.558;2023-12-14T07:31:22;2.80;;;1.10;;
67146;SDS011;70072;52.036;5.558;2023-12-14T07:33:47;5.07;;;1.05;;
67146;SDS011;70072;52.036;5.558;2023-12-14T07:36:13;5.10;;;1.20;;
67146;SDS011;70072;52.036;5.558;2023-12-14T07:38:39;2.45;;;0.80;;
67146;SDS011;70072;52.036;5.558;2023-12-14T07:41:07;1.83;;;0.80;;
67146;SDS011;70072;52.036;5.558;2023-12-14T07:43:32;2.13;;;1.10;;
67146;SDS011;70072;52.036;5.558;2023-12-14T07:45:58;1.83;;;0.85;;
67146;SDS011;70072;52.036;5.558;2023-12-14T07:48:24;4.20;;;0.98;;
67146;SDS011;70072;52.036;5.558;2023-12-14T07:50:49;1.45;;;0.93;;
67146;SDS011;70072;52.036;5.558;2023-12-14T07:53:17;2.80;;;0.93;;
67146;SDS011;70072;52.036;5.558;2023-12-14T07:55:43;1.15;;;0.90;;
67146;SDS011;70072;52.036;5.558;2023-12-14T07:58:09;1.65;;;0.80;;
67146;SDS011;70072;52.036;5.558;2023-12-14T08:00:34;5.45;;;1.27;;
67146;SDS011;70072;52.036;5.558;2023-12-14T08:03:00;3.88;;;1.42;;
67146;SDS011;70072;52.036;5.558;2023-12-14T08:05:25;5.75;;;1.10;;
67146;SDS011;70072;52.036;5.558;2023-12-14T08:07:51;9.60;;;1.08;;
67146;SDS011;70072;52.036;5.558;2023-12-14T08:10:17;1.58;;;1.17;;
67146;SDS011;70072;52.036;5.558;2023-12-14T08:12:44;3.20;;;1.38;;
67146;SDS011;70072;52.036;5.558;2023-12-14T08:15:09;2.03;;;1.20;;
67146;SDS011;70072;52.036;5.558;2023-12-14T08:17:36;2.45;;;1.45;;
67146;SDS011;70072;52.036;5.558;2023-12-14T08:20:02;4.05;;;1.40;;
67146;SDS011;70072;52.036;5.558;2023-12-14T08:22:33;8.10;;;1.33;;
67146;SDS011;70072;52.036;5.558;2023-12-14T08:24:59;3.45;;;1.65;;
67146;SDS011;70072;52.036;5.558;2023-12-14T08:27:25;5.57;;;1.75;;
67146;SDS011;70072;52.036;5.558;2023-12-14T08:29:50;3.65;;;1.73;;
67146;SDS011;70072;52.036;5.558;2023-12-14T08:32:16;3.05;;;1.55;;
67146;SDS011;70072;52.036;5.558;2023-12-14T08:34:42;7.13;;;1.70;;
67146;SDS011;70072;52.036;5.558;2023-12-14T08:37:07;3.08;;;1.50;;
67146;SDS011;70072;52.036;5.558;2023-12-14T08:39:33;3.38;;;1.27;;
67146;SDS011;70072;52.036;5.558;2023-12-14T08:41:58;8.90;;;1.40;;
67146;SDS011;70072;52.036;5.558;2023-12-14T08:44:24;4.22;;;1.63;;
67146;SDS011;70072;52.036;5.558;2023-12-14T08:46:50;4.50;;;1.67;;
67146;SDS011;70072;52.036;5.558;2023-12-14T08:49:15;3.58;;;1.50;;
67146;SDS011;70072;52.036;5.558;2023-12-14T08:51:41;9.25;;;1.70;;
67146;SDS011;70072;52.036;5.558;2023-12-14T08:54:07;2.80;;;1.50;;
67146;SDS011;70072;52.036;5.558;2023-12-14T08:56:33;9.50;;;1.50;;
67146;SDS011;70072;52.036;5.558;2023-12-14T08:58:59;4.03;;;1.67;;
67146;SDS011;70072;52.036;5.558;2023-12-14T09:01:25;1.85;;;1.67;;
67146;SDS011;70072;52.036;5.558;2023-12-14T09:03:51;3.63;;;1.40;;
67146;SDS011;70072;52.036;5.558;2023-12-14T09:06:17;5.55;;;1.48;;
67146;SDS011;70072;52.036;5.558;2023-12-14T09:08:43;6.20;;;1.50;;
67146;SDS011;70072;52.036;5.558;2023-12-14T09:11:09;5.97;;;1.80;;
67146;SDS011;70072;52.036;5.558;2023-12-14T09:13:35;9.88;;;1.45;;
67146;SDS011;70072;52.036;5.558;2023-12-14T09:16:03;15.77;;;1.67;;
67146;SDS011;70072;52.036;5.558;2023-12-14T09:18:28;5.03;;;1.52;;
67146;SDS011;70072;52.036;5.558;2023-12-14T09:20:55;6.38;;;1.40;;
67146;SDS011;70072;52.036;5.558;2023-12-14T09:23:21;6.97;;;1.40;;
67146;SDS011;70072;52.036;5.558;2023-12-14T09:25:46;3.65;;;1.27;;
67146;SDS011;70072;52.036;5.558;2023-12-14T09:28:12;2.80;;;1.20;;
67146;SDS011;70072;52.036;5.558;2023-12-14T09:30:38;4.50;;;1.10;;
67146;SDS011;70072;52.036;5.558;2023-12-14T09:33:03;7.30;;;1.25;;
67146;SDS011;70072;52.036;5.558;2023-12-14T09:35:29;1.92;;;1.08;;
67146;SDS011;70072;52.036;5.558;2023-12-14T09:37:55;4.55;;;1.10;;
67146;SDS011;70072;52.036;5.558;2023-12-14T09:40:21;7.63;;;0.90;;
67146;SDS011;70072;52.036;5.558;2023-12-14T09:42:47;2.83;;;1.20;;
67146;SDS011;70072;52.036;5.558;2023-12-14T09:45:13;2.50;;;1.20;;
67146;SDS011;70072;52.036;5.558;2023-12-14T09:47:42;5.13;;;1.30;;
67146;SDS011;70072;52.036;5.558;2023-12-14T09:50:09;5.60;;;1.45;;
67146;SDS011;70072;52.036;5.558;2023-12-14T09:52:35;3.72;;;1.00;;
67146;SDS011;70072;52.036;5.558;2023-12-14T09:55:01;3.33;;;0.95;;
67146;SDS011;70072;52.036;5.558;2023-12-14T09:57:28;3.75;;;0.95;;
67146;SDS011;70072;52.036;5.558;2023-12-14T09:59:54;1.55;;;0.85;;
67146;SDS011;70072;52.036;5.558;2023-12-14T10:02:24;4.63;;;1.02;;
67146;SDS011;70072;52.036;5.558;2023-12-14T10:04:52;3.72;;;0.85;;
67146;SDS011;70072;52.036;5.558;2023-12-14T10:07:18;2.50;;;1.00;;
67146;SDS011;70072;52.036;5.558;2023-12-14T10:09:45;4.05;;;0.98;;
67146;SDS011;70072;52.036;5.558;2023-12-14T10:12:10;5.10;;;0.80;;
67146;SDS011;70072;52.036;5.558;2023-12-14T10:14:36;2.78;;;0.93;;
67146;SDS011;70072;52.036;5.558;2023-12-14T10:19:44;1.63;;;0.90;;
67146;SDS011;70072;52.036;5.558;2023-12-14T10:22:11;1.23;;;0.73;;
67146;SDS011;70072;52.036;5.558;2023-12-14T10:24:48;3.60;;;1.00;;
67146;SDS011;70072;52.036;5.558;2023-12-14T10:27:15;0.98;;;0.80;;
67146;SDS011;70072;52.036;5.558;2023-12-14T10:29:41;1.40;;;0.90;;
67146;SDS011;70072;52.036;5.558;2023-12-14T10:32:10;3.90;;;1.10;;
67146;SDS011;70072;52.036;5.558;2023-12-14T10:34:37;2.00;;;0.77;;
67146;SDS011;70072;52.036;5.558;2023-12-14T10:37:06;1.30;;;0.80;;
67146;SDS011;70072;52.036;5.558;2023-12-14T10:39:34;1.73;;;1.00;;
67146;SDS011;70072;52.036;5.558;2023-12-14T10:42:02;1.13;;;0.90;;
67146;SDS011;70072;52.036;5.558;2023-12-14T10:44:29;1.75;;;0.90;;
67146;SDS011;70072;52.036;5.558;2023-12-14T10:46:57;2.55;;;1.15;;
67146;SDS011;70072;52.036;5.558;2023-12-14T10:49:27;3.90;;;0.90;;
67146;SDS011;70072;52.036;5.558;2023-12-14T10:51:57;3.08;;;1.08;;
67146;SDS011;70072;52.036;5.558;2023-12-14T10:54:24;3.45;;;1.02;;
67146;SDS011;70072;52.036;5.558;2023-12-14T10:56:55;1.13;;;0.70;;
67146;SDS011;70072;52.036;5.558;2023-12-14T10:59:21;3.10;;;0.90;;
67146;SDS011;70072;52.036;5.558;2023-12-14T11:01:54;5.95;;;1.20;;
67146;SDS011;70072;52.036;5.558;2023-12-14T11:04:24;2.47;;;0.82;;
67146;SDS011;70072;52.036;5.558;2023-12-14T11:06:52;4.30;;;0.90;;
67146;SDS011;70072;52.036;5.558;2023-12-14T11:09:18;1.40;;;0.90;;
67146;SDS011;70072;52.036;5.558;2023-12-14T11:14:21;1.65;;;1.00;;
67146;SDS011;70072;52.036;5.558;2023-12-14T11:17:01;2.08;;;0.90;;
67146;SDS011;70072;52.036;5.558;2023-12-14T11:19:31;0.90;;;0.70;;
67146;SDS011;70072;52.036;5.558;2023-12-14T11:22:10;1.92;;;1.10;;
67146;SDS011;70072;52.036;5.558;2023-12-14T11:24:38;1.05;;;0.90;;
67146;SDS011;70072;52.036;5.558;2023-12-14T11:27:09;1.08;;;0.98;;
67146;SDS011;70072;52.036;5.558;2023-12-14T11:29:38;1.27;;;0.85;;
67146;SDS011;70072;52.036;5.558;2023-12-14T11:32:06;1.00;;;0.90;;
67146;SDS011;70072;52.036;5.558;2023-12-14T11:34:32;3.50;;;1.05;;
67146;SDS011;70072;52.036;5.558;2023-12-14T11:36:58;1.10;;;0.90;;
67146;SDS011;70072;52.036;5.558;2023-12-14T11:39:24;1.35;;;0.80;;
67146;SDS011;70072;52.036;5.558;2023-12-14T11:42:02;0.70;;;0.68;;
67146;SDS011;70072;52.036;5.558;2023-12-14T11:44:29;0.80;;;0.80;;
67146;SDS011;70072;52.036;5.558;2023-12-14T11:46:58;1.85;;;0.70;;
67146;SDS011;70072;52.036;5.558;2023-12-14T11:49:24;0.70;;;0.70;;
67146;SDS011;70072;52.036;5.558;2023-12-14T11:51:54;1.52;;;0.90;;
67146;SDS011;70072;52.036;5.558;2023-12-14T11:54:20;1.42;;;0.65;;
67146;SDS011;70072;52.036;5.558;2023-12-14T11:56:47;1.73;;;0.80;;
67146;SDS011;70072;52.036;5.558;2023-12-14T11:59:14;0.80;;;0.80;;
67146;SDS011;70072;52.036;5.558;2023-12-14T12:01:57;0.90;;;0.80;;
67146;SDS011;70072;52.036;5.558;2023-12-14T12:04:24;3.15;;;0.82;;
67146;SDS011;70072;52.036;5.558;2023-12-14T12:06:58;2.70;;;0.70;;
67146;SDS011;70072;52.036;5.558;2023-12-14T12:09:38;3.42;;;0.80;;
67146;SDS011;70072;52.036;5.558;2023-12-14T12:12:09;0.82;;;0.80;;
67146;SDS011;70072;52.036;5.558;2023-12-14T12:14:36;3.60;;;0.75;;
67146;SDS011;70072;52.036;5.558;2023-12-14T12:17:03;2.58;;;0.90;;
67146;SDS011;70072;52.036;5.558;2023-12-14T12:19:31;0.90;;;0.70;;
67146;SDS011;70072;52.036;5.558;2023-12-14T12:22:00;1.40;;;0.80;;
67146;SDS011;70072;52.036;5.558;2023-12-14T12:24:29;1.60;;;0.73;;
67146;SDS011;70072;52.036;5.558;2023-12-14T12:26:54;0.70;;;0.70;;
67146;SDS011;70072;52.036;5.558;2023-12-14T12:29:21;0.95;;;0.70;;
67146;SDS011;70072;52.036;5.558;2023-12-14T12:31:47;0.85;;;0.80;;
67146;SDS011;70072;52.036;5.558;2023-12-14T12:34:13;1.73;;;0.90;;
67146;SDS011;70072;52.036;5.558;2023-12-14T12:36:39;1.17;;;0.77;;
67146;SDS011;70072;52.036;5.558;2023-12-14T12:39:05;0.88;;;0.80;;
67146;SDS011;70072;52.036;5.558;2023-12-14T12:41:31;1.40;;;0.70;;
67146;SDS011;70072;52.036;5.558;2023-12-14T12:43:58;1.88;;;0.70;;
67146;SDS011;70072;52.036;5.558;2023-12-14T12:46:24;1.27;;;0.90;;
67146;SDS011;70072;52.036;5.558;2023-12-14T12:48:50;2.80;;;0.80;;
67146;SDS011;70072;52.036;5.558;2023-12-14T12:51:16;1.10;;;0.70;;
67146;SDS011;70072;52.036;5.558;2023-12-14T12:53:42;1.05;;;0.77;;
67146;SDS011;70072;52.036;5.558;2023-12-14T12:56:07;1.10;;;0.90;;
67146;SDS011;70072;52.036;5.558;2023-12-14T12:58:35;2.58;;;0.80;;
67146;SDS011;70072;52.036;5.558;2023-12-14T13:01:01;4.13;;;0.70;;
67146;SDS011;70072;52.036;5.558;2023-12-14T13:03:26;2.13;;;0.82;;
67146;SDS011;70072;52.036;5.558;2023-12-14T13:05:52;9.90;;;0.90;;
67146;SDS011;70072;52.036;5.558;2023-12-14T13:08:18;4.75;;;0.88;;
67146;SDS011;70072;52.036;5.558;2023-12-14T13:10:43;6.05;;;0.90;;
67146;SDS011;70072;52.036;5.558;2023-12-14T13:13:09;4.63;;;0.82;;
67146;SDS011;70072;52.036;5.558;2023-12-14T13:15:37;3.28;;;1.00;;
67146;SDS011;70072;52.036;5.558;2023-12-14T13:18:04;1.08;;;0.70;;
67146;SDS011;70072;52.036;5.558;2023-12-14T13:20:29;2.50;;;0.70;;
67146;SDS011;70072;52.036;5.558;2023-12-14T13:22:55;1.67;;;0.70;;
67146;SDS011;70072;52.036;5.558;2023-12-14T13:25:20;6.07;;;0.80;;
67146;SDS011;70072;52.036;5.558;2023-12-14T13:27:51;5.05;;;0.90;;
67146;SDS011;70072;52.036;5.558;2023-12-14T13:30:16;3.20;;;0.90;;
67146;SDS011;70072;52.036;5.558;2023-12-14T13:32:45;0.88;;;0.70;;
67146;SDS011;70072;52.036;5.558;2023-12-14T13:35:10;1.35;;;0.90;;
67146;SDS011;70072;52.036;5.558;2023-12-14T13:37:36;1.85;;;1.10;;
67146;SDS011;70072;52.036;5.558;2023-12-14T13:40:02;1.75;;;0.90;;
67146;SDS011;70072;52.036;5.558;2023-12-14T13:42:28;1.45;;;0.80;;
67146;SDS011;70072;52.036;5.558;2023-12-14T13:44:54;2.55;;;0.80;;
67146;SDS011;70072;52.036;5.558;2023-12-14T13:47:20;3.15;;;0.85;;
67146;SDS011;70072;52.036;5.558;2023-12-14T13:49:45;4.55;;;0.95;;
67146;SDS011;70072;52.036;5.558;2023-12-14T13:52:13;1.13;;;0.70;;
67146;SDS011;70072;52.036;5.558;2023-12-14T13:54:39;1.60;;;0.70;;
67146;SDS011;70072;52.036;5.558;2023-12-14T13:57:05;2.38;;;0.80;;
67146;SDS011;70072;52.036;5.558;2023-12-14T13:59:30;1.58;;;0.98;;
67146;SDS011;70072;52.036;5.558;2023-12-14T14:01:57;0.77;;;0.63;;
67146;SDS011;70072;52.036;5.558;2023-12-14T14:04:24;1.40;;;0.90;;
67146;SDS011;70072;52.036;5.558;2023-12-14T14:06:50;0.95;;;0.88;;
67146;SDS011;70072;52.036;5.558;2023-12-14T14:09:20;1.08;;;0.90;;
67146;SDS011;70072;52.036;5.558;2023-12-14T14:11:47;2.08;;;0.70;;
67146;SDS011;70072;52.036;5.558;2023-12-14T14:14:15;1.38;;;0.90;;
67146;SDS011;70072;52.036;5.558;2023-12-14T14:16:45;0.82;;;0.80;;
67146;SDS011;70072;52.036;5.558;2023-12-14T14:19:13;5.50;;;0.88;;
67146;SDS011;70072;52.036;5.558;2023-12-14T14:21:39;1.08;;;0.75;;
67146;SDS011;70072;52.036;5.558;2023-12-14T14:24:05;1.60;;;1.00;;
67146;SDS011;70072;52.036;5.558;2023-12-14T14:26:38;0.65;;;0.65;;
67146;SDS011;70072;52.036;5.558;2023-12-14T14:29:07;1.38;;;0.70;;
67146;SDS011;70072;52.036;5.558;2023-12-14T14:31:36;1.95;;;0.73;;
67146;SDS011;70072;52.036;5.558;2023-12-14T14:34:02;2.85;;;0.80;;
67146;SDS011;70072;52.036;5.558;2023-12-14T14:36:30;0.80;;;0.80;;
67146;SDS011;70072;52.036;5.558;2023-12-14T14:38:56;3.35;;;0.80;;
67146;SDS011;70072;52.036;5.558;2023-12-14T14:41:23;1.80;;;0.80;;
67146;SDS011;70072;52.036;5.558;2023-12-14T14:43:49;6.38;;;0.70;;
67146;SDS011;70072;52.036;5.558;2023-12-14T14:46:14;5.10;;;0.80;;
67146;SDS011;70072;52.036;5.558;2023-12-14T14:48:45;1.20;;;0.90;;